Time;durP1;ratioP1;P1;durP2;ratioP2;P2;SDS_P1;SDS_P2;PMS_P1;PMS_P2;Temp;Humidity;BMP_temperature;BMP_pressure;BME280_temperature;BME280_humidity;BME280_pressure;Samples;Min_cycle;Max_cycle;Signal;HPM_P1;HPM_P2
2022/01/27 00:01:13;;;;;;;36.75;9.50;;;;;;;1.84;85.65;101491.16;5055640;28;20116;-76
2022/01/27 00:04:01;;;;;;;36.25;9.95;;;;;;;1.84;85.78;101485.84;5092976;28;20028;-77
2022/01/27 00:06:27;;;;;;;32.75;10.35;;;;;;;1.83;86.01;101478.84;5092130;28;20454;-77
2022/01/27 00:08:58;;;;;;;25.30;9.55;;;;;;;1.82;85.84;101478.00;5093120;28;20026;-75
2022/01/27 00:11:23;;;;;;;32.60;8.93;;;;;;;1.87;86.06;101474.97;5093834;28;20450;-76
2022/01/27 00:13:56;;;;;;;29.55;10.10;;;;;;;1.86;85.79;101471.47;5096335;28;20043;-78
2022/01/27 00:16:26;;;;;;;26.70;9.07;;;;;;;1.84;85.30;101477.88;5097557;28;20028;-74
2022/01/27 00:18:52;;;;;;;35.88;10.07;;;;;;;1.83;85.32;101463.75;5096988;28;20028;-73
2022/01/27 00:21:21;;;;;;;33.75;10.13;;;;;;;1.85;84.96;101475.09;5097088;28;20038;-73
2022/01/27 00:23:50;;;;;;;23.58;8.32;;;;;;;1.91;84.81;101463.13;5096793;28;20024;-74
2022/01/27 00:26:17;;;;;;;33.53;9.30;;;;;;;1.88;84.45;101460.72;5097130;28;20024;-74
2022/01/27 00:28:43;;;;;;;31.55;9.32;;;;;;;1.86;84.01;101452.03;5096863;28;20028;-75
2022/01/27 00:31:10;;;;;;;32.95;9.48;;;;;;;1.86;84.28;101442.25;5097208;28;20028;-74
2022/01/27 00:33:35;;;;;;;;;;;;;;;1.85;83.80;101445.03;5097476;28;20077;-72
2022/01/27 00:36:04;;;;;;;28.77;9.07;;;;;;;1.85;83.56;101427.25;5097015;28;20304;-73
2022/01/27 00:38:31;;;;;;;28.27;10.75;;;;;;;1.84;83.89;101422.91;5095186;28;20101;-73
2022/01/27 00:40:56;;;;;;;27.85;10.45;;;;;;;1.85;83.66;101429.06;5096662;28;20433;-74
2022/01/27 00:43:22;;;;;;;24.23;8.13;;;;;;;1.81;83.48;101414.34;5096947;28;20024;-74
2022/01/27 00:45:48;;;;;;;22.70;9.82;;;;;;;1.82;83.47;101410.72;5096657;28;20036;-74
2022/01/27 00:48:16;;;;;;;24.55;9.80;;;;;;;1.82;83.40;101416.03;5096734;28;20035;-73
2022/01/27 00:50:41;;;;;;;28.60;8.77;;;;;;;1.82;83.06;101400.09;5097350;28;20032;-73
2022/01/27 00:53:22;;;;;;;29.48;9.10;;;;;;;1.80;82.97;101397.56;5096971;28;20040;-74
2022/01/27 00:55:48;;;;;;;23.58;9.30;;;;;;;1.81;82.86;101387.78;5098237;28;20489;-73
2022/01/27 01:00:48;;;;;;;27.38;9.75;;;;;;;1.78;82.96;101369.44;5097814;28;20032;-74
2022/01/27 01:03:24;;;;;;;26.95;8.00;;;;;;;1.77;82.36;101381.88;5096537;28;20024;-74
2022/01/27 01:19:32;;;;;;;25.50;8.82;;;;;;;1.82;82.34;101376.19;5096886;28;20024;-73
2022/01/27 01:33:06;;;;;;;22.90;8.02;;;;;;;1.78;82.44;101362.31;5095990;28;20077;-74
2022/01/27 01:35:49;;;;;;;26.98;9.43;;;;;;;1.76;82.50;101352.78;5095831;28;20106;-74
2022/01/27 01:38:19;;;;;;;24.50;7.82;;;;;;;1.78;82.75;101377.41;5095791;28;20028;-73
2022/01/27 01:40:47;;;;;;;28.98;10.07;;;;;;;1.78;82.35;101362.31;5095691;28;20028;-73
2022/01/27 01:43:14;;;;;;;27.10;8.85;;;;;;;1.76;82.73;101363.41;5095568;28;20038;-74
2022/01/27 01:45:39;;;;;;;;;;;;;;;1.74;82.59;101352.91;5095995;28;20066;-74
2022/01/27 01:48:04;;;;;;;25.88;8.57;;;;;;;1.75;82.64;101351.94;5095327;28;19939;-75
2022/01/27 01:50:30;;;;;;;26.15;9.52;;;;;;;1.75;82.64;101349.28;5095672;28;20039;-75
2022/01/27 01:52:55;;;;;;;26.45;9.48;;;;;;;1.72;82.69;101342.41;5094134;28;20032;-74
2022/01/27 01:55:21;;;;;;;22.58;7.70;;;;;;;1.71;82.81;101335.41;5095237;28;20034;-75
2022/01/27 01:57:46;;;;;;;28.05;9.25;;;;;;;1.69;82.64;101332.03;5095061;28;20052;-75
2022/01/27 02:00:13;;;;;;;29.37;10.50;;;;;;;1.67;83.09;101327.78;5095575;28;20100;-75
2022/01/27 02:02:40;;;;;;;27.52;9.07;;;;;;;1.66;83.24;101329.59;5095025;28;20516;-74
2022/01/27 02:05:06;;;;;;;26.83;8.23;;;;;;;1.68;82.97;101343.63;5093985;28;20028;-75
2022/01/27 02:07:44;;;;;;;29.88;11.68;;;;;;;1.64;83.23;101328.88;5095181;28;20043;-74
2022/01/27 02:18:07;;;;;;;23.60;8.73;;;;;;;1.64;83.77;101354.59;5094944;28;20062;-73
2022/01/27 02:20:35;;;;;;;29.10;8.85;;;;;;;1.65;83.55;101348.31;5094941;28;20024;-74
2022/01/27 02:23:03;;;;;;;30.10;9.18;;;;;;;1.66;83.74;101340.22;5094623;28;20371;-74
2022/01/27 02:25:28;;;;;;;27.27;8.85;;;;;;;1.67;83.51;101327.78;5094817;28;20061;-74
2022/01/27 02:27:55;;;;;;;24.27;8.00;;;;;;;1.66;83.75;101307.50;5094530;28;20029;-75
2022/01/27 02:30:22;;;;;;;23.98;7.93;;;;;;;1.65;83.69;101303.16;5093374;28;20482;-74
2022/01/27 02:32:51;;;;;;;28.58;9.52;;;;;;;1.65;83.73;101300.50;5094130;28;20107;-75
2022/01/27 02:35:16;;;;;;;32.17;9.93;;;;;;;1.67;83.78;101306.53;5094093;28;20111;-74
2022/01/27 02:37:42;;;;;;;27.90;8.27;;;;;;;1.69;83.59;101316.06;5094271;28;20474;-74
2022/01/27 02:40:08;;;;;;;25.42;7.85;;;;;;;1.70;83.70;101316.91;5093148;28;20493;-74
2022/01/27 02:42:35;;;;;;;19.48;7.43;;;;;;;1.73;83.27;101298.91;5093207;28;20032;-75
2022/01/27 02:45:04;;;;;;;23.92;7.90;;;;;;;1.73;83.69;101300.72;5094379;28;20031;-74
2022/01/27 02:47:30;;;;;;;22.27;8.25;;;;;;;1.73;83.83;101317.53;5094356;28;20024;-74
2022/01/27 02:49:56;;;;;;;25.23;9.40;;;;;;;1.77;83.41;101307.50;5094100;28;20032;-74
2022/01/27 02:52:21;;;;;;;26.95;8.00;;;;;;;1.73;83.63;101295.41;5094334;28;20375;-74
2022/01/27 02:54:47;;;;;;;25.38;8.35;;;;;;;1.74;83.97;101289.97;5092927;28;20072;-74
2022/01/27 02:57:13;;;;;;;25.35;9.30;;;;;;;1.78;83.43;101287.06;5094122;28;20040;-74
2022/01/27 02:59:38;;;;;;;26.55;8.65;;;;;;;1.77;83.59;101301.31;5092856;28;20387;-74
2022/01/27 03:02:04;;;;;;;25.58;8.90;;;;;;;1.80;83.66;101269.16;5093909;28;20028;-74
2022/01/27 03:04:30;;;;;;;26.77;8.23;;;;;;;1.80;83.77;101277.97;5093992;28;20024;-73
2022/01/27 03:06:56;;;;;;;31.00;9.38;;;;;;;1.82;83.47;101272.53;5093895;28;20040;-74
2022/01/27 03:09:21;;;;;;;;;;;;;;;1.81;83.65;101279.66;5094161;28;20040;-74
2022/01/27 03:11:48;;;;;;;27.25;7.05;;;;;;;1.82;84.09;101264.56;5093914;28;19960;-74
2022/01/27 03:14:16;;;;;;;34.10;9.18;;;;;;;1.85;83.58;101249.22;5094011;28;20484;-75
2022/01/27 03:16:41;;;;;;;20.30;7.93;;;;;;;1.84;83.68;101265.28;5093616;28;20060;-74
2022/01/27 03:19:07;;;;;;;26.33;7.53;;;;;;;1.85;83.97;101257.19;5093546;28;20063;-75
2022/01/27 03:21:33;;;;;;;30.30;8.30;;;;;;;1.86;83.92;101242.09;5094086;28;20024;-75
2022/01/27 03:23:59;;;;;;;19.65;7.95;;;;;;;1.85;83.54;101251.88;5093346;28;20024;-74
2022/01/27 03:26:25;;;;;;;21.88;8.00;;;;;;;1.87;84.01;101243.78;5093837;28;20132;-75
2022/01/27 03:28:50;;;;;;;;;;;;;;;1.89;83.60;101257.78;5092872;28;20031;-73
2022/01/27 03:31:16;;;;;;;23.75;7.30;;;;;;;1.89;83.61;101258.63;5093405;28;19912;-74
2022/01/27 03:33:43;;;;;;;22.00;8.80;;;;;;;1.91;83.82;101251.38;5093853;28;20028;-74
2022/01/27 03:36:09;;;;;;;23.85;7.78;;;;;;;1.93;83.58;101261.88;5093564;28;20055;-74
2022/01/27 03:38:35;;;;;;;22.95;7.47;;;;;;;1.91;84.10;101251.38;5093488;28;20119;-74
2022/01/27 03:41:05;;;;;;;;;;;;;;;1.90;84.00;101254.16;5092719;28;20107;-74
2022/01/27 03:43:31;;;;;;;22.92;6.63;;;;;;;1.91;83.70;101247.88;5092273;28;19919;-74
2022/01/27 03:45:56;;;;;;;25.25;8.10;;;;;;;1.93;83.82;101249.44;5093315;28;20032;-74
2022/01/27 03:48:21;;;;;;;25.45;8.35;;;;;;;1.94;83.60;101245.81;5093724;28;20028;-74
2022/01/27 03:50:47;;;;;;;23.98;8.63;;;;;;;1.93;83.99;101232.66;5093632;28;20416;-75
2022/01/27 03:53:14;;;;;;;22.30;7.10;;;;;;;1.90;83.86;101225.75;5093347;28;20068;-74
2022/01/27 03:55:39;;;;;;;22.05;7.90;;;;;;;1.94;83.79;101218.38;5093351;28;20431;-74
2022/01/27 03:58:04;;;;;;;21.60;7.80;;;;;;;1.95;83.63;101214.75;5091885;28;20127;-75
2022/01/27 04:00:30;;;;;;;23.00;7.47;;;;;;;1.97;83.63;101202.19;5093081;28;20071;-74
2022/01/27 04:03:07;;;;;;;28.05;7.35;;;;;;;1.96;83.58;101211.13;5091969;28;20050;-74
2022/01/27 04:05:39;;;;;;;19.42;7.63;;;;;;;2.02;83.54;101219.41;5093107;28;20528;-74
2022/01/27 04:08:06;;;;;;;25.10;7.63;;;;;;;1.97;83.63;101210.16;5093291;28;20038;-74
2022/01/27 04:10:32;;;;;;;25.02;8.02;;;;;;;1.97;83.75;101205.66;5093195;28;20029;-74
2022/01/27 04:12:58;;;;;;;20.90;8.35;;;;;;;1.99;83.90;101205.53;5093528;28;20538;-74
2022/01/27 04:15:24;;;;;;;23.75;7.05;;;;;;;1.99;83.90;101211.69;5093108;28;20032;-75
2022/01/27 04:17:50;;;;;;;;;;;;;;;2.02;83.54;101210.59;5093305;28;20036;-74
2022/01/27 04:20:16;;;;;;;22.27;7.18;;;;;;;2.06;83.55;101212.00;5093124;28;19961;-74
2022/01/27 04:22:41;;;;;;;24.98;8.98;;;;;;;2.07;83.69;101213.69;5092802;28;20168;-74
2022/01/27 04:25:07;;;;;;;21.90;7.63;;;;;;;2.05;83.59;101191.72;5092702;28;20076;-74
2022/01/27 04:27:37;;;;;;;22.80;8.00;;;;;;;2.11;83.58;101195.69;5092967;28;20028;-74
2022/01/27 04:30:05;;;;;;;21.15;7.25;;;;;;;2.08;83.51;101175.53;5092886;28;20478;-73
2022/01/27 04:32:38;;;;;;;20.17;6.95;;;;;;;2.11;83.57;101183.22;5093289;28;20024;-74
2022/01/27 04:35:06;;;;;;;18.85;6.35;;;;;;;2.11;83.79;101174.41;5093008;28;20027;-74
2022/01/27 04:37:37;;;;;;;22.02;7.88;;;;;;;2.14;83.60;101148.41;5092743;28;20023;-74
2022/01/27 04:40:09;;;;;;;24.00;9.05;;;;;;;2.14;83.30;101163.53;5092623;28;20028;-74
2022/01/27 04:45:29;;;;;;;21.80;7.80;;;;;;;2.17;83.62;101158.75;5063754;28;20044;-75
2022/01/27 04:48:04;;;;;;;26.73;8.05;;;;;;;2.17;83.37;101134.81;5093116;28;20481;-75
2022/01/27 04:50:29;;;;;;;23.95;8.15;;;;;;;2.17;83.56;101132.16;5092837;28;20028;-74
2022/01/27 04:52:56;;;;;;;18.50;7.55;;;;;;;2.18;83.64;101117.91;5092983;28;20119;-74
2022/01/27 04:55:23;;;;;;;20.85;8.85;;;;;;;2.20;83.53;101115.97;5092474;28;20032;-74
2022/01/27 04:57:55;;;;;;;17.83;6.50;;;;;;;2.20;83.75;101128.41;5095446;28;20501;-76
2022/01/27 05:00:21;;;;;;;22.67;6.90;;;;;;;2.19;83.52;101119.59;5096714;28;20106;-75
2022/01/27 05:02:54;;;;;;;22.48;7.03;;;;;;;2.17;83.75;101118.88;5096742;28;20050;-76
2022/01/27 05:05:21;;;;;;;21.77;6.68;;;;;;;2.15;83.98;101099.56;5096329;28;20032;-75
2022/01/27 05:07:54;;;;;;;20.92;6.88;;;;;;;2.16;84.13;101093.25;5096210;28;20420;-75
2022/01/27 05:10:23;;;;;;;24.25;7.90;;;;;;;2.17;83.61;101105.59;5095100;28;20111;-76
2022/01/27 05:12:51;;;;;;;19.00;7.63;;;;;;;2.19;83.94;101106.28;5095331;28;20031;-77
2022/01/27 05:15:18;;;;;;;23.88;9.35;;;;;;;2.19;83.85;101110.78;5095235;28;20451;-75
2022/01/27 05:17:43;;;;;;;24.08;7.93;;;;;;;2.20;83.75;101107.13;5096061;28;20032;-76
2022/01/27 05:20:10;;;;;;;24.45;7.65;;;;;;;2.21;84.08;101091.06;5095050;28;20381;-75
2022/01/27 05:22:36;;;;;;;23.75;8.13;;;;;;;2.21;83.98;101093.72;5096138;28;20032;-76
2022/01/27 05:25:01;;;;;;;;;;;;;;;2.21;84.16;101092.88;5096783;28;20036;-77
2022/01/27 05:27:26;;;;;;;23.13;7.65;;;;;;;2.21;84.29;101101.69;5095950;28;19916;-76
2022/01/27 05:29:52;;;;;;;25.43;6.93;;;;;;;2.23;83.83;101091.75;5096542;28;20032;-76
2022/01/27 05:32:18;;;;;;;15.85;6.82;;;;;;;2.25;83.98;101084.50;5095061;28;20442;-76
2022/01/27 05:34:44;;;;;;;20.52;7.28;;;;;;;2.24;84.26;101074.00;5095358;28;20491;-76
2022/01/27 05:37:09;;;;;;;18.05;6.38;;;;;;;2.26;84.38;101090.66;5095760;28;20106;-76
2022/01/27 05:39:34;;;;;;;25.73;8.40;;;;;;;2.24;84.34;101093.44;5095764;28;20124;-76
2022/01/27 05:42:00;;;;;;;18.77;8.35;;;;;;;2.27;84.09;101082.53;5095851;28;20023;-76
2022/01/27 05:44:25;;;;;;;19.70;5.73;;;;;;;2.28;84.06;101051.47;5094405;28;20481;-76
2022/01/27 05:46:50;;;;;;;22.52;7.90;;;;;;;2.31;83.91;101038.75;5094756;28;20744;-76
2022/01/27 05:49:16;;;;;;;16.90;6.23;;;;;;;2.33;83.73;101049.25;5094423;28;20240;-76
2022/01/27 05:51:41;;;;;;;21.73;7.07;;;;;;;2.29;84.11;101051.34;5095669;28;20258;-77
2022/01/27 05:54:07;;;;;;;19.75;7.20;;;;;;;2.29;84.27;101024.75;5096007;28;20047;-76
2022/01/27 05:56:32;;;;;;;26.92;8.18;;;;;;;2.33;84.28;101039.44;5095656;28;20525;-75
2022/01/27 05:58:57;;;;;;;18.60;7.20;;;;;;;2.34;84.11;101051.75;5095861;28;20417;-76
2022/01/27 06:01:22;;;;;;;20.55;7.10;;;;;;;2.36;84.19;101041.00;5095022;28;20420;-76
2022/01/27 06:03:48;;;;;;;30.00;8.38;;;;;;;2.36;84.13;101044.47;5095368;28;20455;-77
2022/01/27 06:06:13;;;;;;;23.50;7.53;;;;;;;2.40;84.01;101056.53;5095386;28;20028;-76
2022/01/27 06:08:38;;;;;;;25.25;7.25;;;;;;;2.44;84.17;101055.28;5094291;28;20035;-77
2022/01/27 06:11:05;;;;;;;19.85;7.60;;;;;;;2.48;84.01;101042.56;5095508;28;20054;-76
2022/01/27 06:13:30;;;;;;;21.60;7.13;;;;;;;2.50;83.88;101031.78;5095008;28;20093;-76
2022/01/27 06:15:56;;;;;;;27.37;8.10;;;;;;;2.53;84.19;101040.31;5095161;28;20032;-76
2022/01/27 06:18:21;;;;;;;22.70;7.85;;;;;;;2.62;83.85;101028.84;5095084;28;20337;-76
2022/01/27 06:20:47;;;;;;;20.05;7.47;;;;;;;2.66;84.05;101024.94;5095121;28;20067;-77
2022/01/27 06:23:13;;;;;;;18.77;8.60;;;;;;;2.69;83.67;101014.00;5094843;28;20059;-76
2022/01/27 06:25:39;;;;;;;21.88;6.68;;;;;;;2.73;83.95;101019.88;5095210;28;20082;-76
2022/01/27 06:28:05;;;;;;;22.17;7.38;;;;;;;2.77;83.67;101008.00;5093778;28;20521;-76
2022/01/27 06:30:34;;;;;;;18.70;6.63;;;;;;;2.81;84.02;101001.41;5094818;28;20074;-76
2022/01/27 06:33:02;;;;;;;17.50;6.82;;;;;;;2.88;83.89;100997.19;5094917;28;20034;-76
2022/01/27 06:35:27;;;;;;;22.00;6.18;;;;;;;2.92;83.59;100979.97;5095430;28;20035;-75
2022/01/27 06:37:52;;;;;;;22.87;7.53;;;;;;;2.96;83.65;100994.69;5094950;28;20032;-76
2022/01/27 06:40:18;;;;;;;26.23;6.60;;;;;;;3.02;83.61;100971.97;5094653;28;20270;-76
2022/01/27 06:42:43;;;;;;;17.00;5.70;;;;;;;3.13;83.60;100977.13;5094110;28;20024;-76
2022/01/27 06:45:10;;;;;;;21.33;7.38;;;;;;;3.19;83.31;100978.41;5094262;28;20027;-77
2022/01/27 06:47:35;;;;;;;24.58;8.20;;;;;;;3.24;83.32;100990.28;5094516;28;20446;-77
2022/01/27 06:50:01;;;;;;;20.70;8.15;;;;;;;3.31;83.16;100998.53;5094452;28;20043;-76
2022/01/27 06:52:28;;;;;;;19.38;7.05;;;;;;;3.38;83.03;100987.16;5094475;28;20036;-75
2022/01/27 06:54:57;;;;;;;18.02;6.38;;;;;;;3.44;83.09;100978.59;5094712;28;20162;-76
2022/01/27 06:57:23;;;;;;;22.00;6.68;;;;;;;3.48;82.68;100984.47;5094680;28;20024;-76
2022/01/27 06:59:48;;;;;;;;;;;;;;;3.50;82.95;100979.84;5095330;28;20040;-76
2022/01/27 07:02:13;;;;;;;18.92;6.03;;;;;;;3.53;82.87;100979.56;5093428;28;19918;-76
2022/01/27 07:04:39;;;;;;;21.13;6.03;;;;;;;3.57;82.81;100978.28;5094053;28;20038;-75
2022/01/27 07:07:08;;;;;;;17.67;6.70;;;;;;;3.61;82.61;100968.97;5093402;28;20086;-76
2022/01/27 07:09:34;;;;;;;17.25;6.03;;;;;;;3.66;82.85;100982.72;5094037;28;20030;-75
2022/01/27 07:11:59;;;;;;;24.20;5.78;;;;;;;3.72;82.83;100982.13;5092983;28;20130;-76
2022/01/27 07:14:25;;;;;;;24.40;7.43;;;;;;;3.74;82.65;100977.50;5094276;28;20028;-75
2022/01/27 07:16:50;;;;;;;18.50;6.27;;;;;;;3.79;82.94;100982.38;5094319;28;20031;-77
2022/01/27 07:19:16;;;;;;;17.63;6.50;;;;;;;3.82;82.65;100974.09;5093215;28;20055;-75
2022/01/27 07:21:41;;;;;;;17.63;6.33;;;;;;;3.83;82.67;100973.09;5096017;28;20035;-75
2022/01/27 07:24:06;;;;;;;16.98;6.05;;;;;;;3.84;83.21;100956.13;5094381;28;20812;-76
2022/01/27 07:26:32;;;;;;;17.60;7.20;;;;;;;3.83;83.37;100963.28;5093384;28;20104;-76
2022/01/27 07:28:58;;;;;;;15.90;5.70;;;;;;;3.78;84.16;100964.69;5099984;28;20514;-75
2022/01/27 07:31:24;;;;;;;23.27;6.70;;;;;;;3.75;84.86;100960.53;5094597;28;20359;-75
2022/01/27 07:33:51;;;;;;;19.35;6.32;;;;;;;3.65;86.30;100959.72;5094481;28;20446;-75
2022/01/27 07:36:16;;;;;;;21.55;6.68;;;;;;;3.59;86.83;100952.28;5092567;28;20119;-77
2022/01/27 07:38:43;;;;;;;20.15;6.68;;;;;;;3.57;87.44;100954.28;5093606;28;20434;-75
2022/01/27 07:41:08;;;;;;;18.55;6.80;;;;;;;3.55;87.28;100960.75;5094307;28;20055;-75
2022/01/27 07:43:34;;;;;;;13.82;5.63;;;;;;;3.56;87.52;100954.44;5095521;28;20070;-76
2022/01/27 07:46:00;;;;;;;20.45;6.88;;;;;;;3.56;87.83;100957.09;5094893;28;20036;-75
2022/01/27 07:48:26;;;;;;;23.35;6.97;;;;;;;3.57;87.95;100956.13;5093435;28;20020;-76
2022/01/27 07:50:51;;;;;;;20.00;6.63;;;;;;;3.57;87.81;100954.28;5093290;28;20039;-75
2022/01/27 07:53:17;;;;;;;18.92;7.57;;;;;;;3.61;87.93;100961.00;5093166;28;20118;-74
2022/01/27 07:55:42;;;;;;;22.48;8.00;;;;;;;3.66;87.79;100969.38;5093599;28;20032;-75
2022/01/27 07:58:08;;;;;;;23.00;6.87;;;;;;;3.64;87.83;100959.84;5092899;28;20040;-75
2022/01/27 08:00:33;;;;;;;19.45;6.70;;;;;;;3.66;88.44;100977.38;5093078;28;20454;-75
2022/01/27 08:02:59;;;;;;;19.45;7.40;;;;;;;3.61;88.45;100968.97;5091217;28;20039;-75
2022/01/27 08:05:24;;;;;;;23.00;6.83;;;;;;;3.62;89.01;100970.66;5092964;28;20161;-75
2022/01/27 08:07:49;;;;;;;20.87;6.63;;;;;;;3.58;89.12;100974.63;5092957;28;20737;-75
2022/01/27 08:10:15;;;;;;;22.02;8.05;;;;;;;3.58;89.89;100987.13;5091391;28;20375;-76
2022/01/27 08:12:44;;;;;;;17.30;6.90;;;;;;;3.56;90.39;100968.59;5092851;28;20039;-76
2022/01/27 08:15:11;;;;;;;20.30;7.60;;;;;;;3.49;91.07;100965.66;5092886;28;20454;-75
2022/01/27 08:17:37;;;;;;;23.20;7.68;;;;;;;3.47;91.48;100980.13;5093015;28;20036;-75
2022/01/27 08:20:03;;;;;;;19.33;6.93;;;;;;;3.43;92.28;100973.41;5092988;28;20518;-76
2022/01/27 08:22:28;;;;;;;25.65;8.07;;;;;;;3.41;92.56;100972.69;5093207;28;20036;-76
2022/01/27 08:24:54;;;;;;;21.80;8.60;;;;;;;3.41;93.01;100967.38;5091624;28;20390;-77
2022/01/27 08:27:24;;;;;;;22.87;7.80;;;;;;;3.45;93.28;100966.94;5092771;28;20032;-77
2022/01/27 08:29:55;;;;;;;20.75;6.68;;;;;;;3.45;93.30;100961.63;5093396;28;20107;-78
2022/01/27 08:32:30;;;;;;;24.75;7.93;;;;;;;3.41;93.63;100967.38;5094747;28;20110;-76
2022/01/27 08:34:55;;;;;;;23.15;8.55;;;;;;;3.41;93.41;100970.03;5096671;28;20093;-77
2022/01/27 08:37:21;;;;;;;20.95;8.35;;;;;;;3.43;93.88;100978.72;5097254;28;20035;-77
2022/01/27 08:39:48;;;;;;;22.10;8.43;;;;;;;3.47;93.98;100966.78;5095735;28;20156;-76
2022/01/27 08:42:14;;;;;;;22.70;9.00;;;;;;;3.42;94.00;100975.22;5095543;28;20020;-77
2022/01/27 08:44:40;;;;;;;31.50;7.78;;;;;;;3.47;94.39;100962.31;5097107;28;20024;-77
2022/01/27 08:47:06;;;;;;;22.80;7.90;;;;;;;3.44;94.39;100973.25;5096078;28;20032;-77
2022/01/27 08:49:32;;;;;;;29.33;9.02;;;;;;;3.44;94.59;100961.75;5096713;28;20039;-77
2022/01/27 08:51:57;;;;;;;27.10;9.10;;;;;;;3.47;94.50;100956.97;5096517;28;20032;-76
2022/01/27 08:54:24;;;;;;;27.15;9.82;;;;;;;3.49;94.68;100948.84;5096251;28;20049;-78
2022/01/27 08:56:49;;;;;;;25.15;8.77;;;;;;;3.52;94.65;100955.72;5095906;28;20032;-77
2022/01/27 08:59:16;;;;;;;28.02;11.82;;;;;;;3.50;94.48;100953.19;5097372;28;20103;-77
2022/01/27 09:01:42;;;;;;;28.20;10.60;;;;;;;3.55;94.89;100966.91;5096706;28;20036;-77
2022/01/27 09:04:08;;;;;;;;;;;;;;;3.55;94.68;100958.09;5098020;28;20093;-78
2022/01/27 09:06:34;;;;;;;27.23;9.90;;;;;;;3.54;94.92;100962.56;5096895;28;19912;-78
2022/01/27 09:09:00;;;;;;;;;;;;;;;3.51;95.20;100962.88;5097814;28;20036;-78
2022/01/27 09:11:29;;;;;;;24.50;8.57;;;;;;;3.56;95.10;100967.75;5096599;28;19934;-77
2022/01/27 09:13:55;;;;;;;30.55;9.43;;;;;;;3.52;95.12;100961.88;5095284;28;20028;-77
2022/01/27 09:16:22;;;;;;;28.25;9.95;;;;;;;3.53;95.40;100966.22;5096474;28;20024;-76
2022/01/27 09:18:48;;;;;;;28.95;9.10;;;;;;;3.55;95.25;100948.28;5096293;28;20032;-77
2022/01/27 09:21:20;;;;;;;22.48;8.25;;;;;;;3.54;95.18;100959.06;5096500;28;20036;-77
2022/01/27 09:23:48;;;;;;;23.05;8.48;;;;;;;3.57;95.37;100962.28;5095832;28;20111;-78
2022/01/27 09:26:38;;;;;;;31.00;9.40;;;;;;;3.56;95.51;100965.09;5095514;28;20035;-78
2022/01/27 09:28:59;;;;;;;33.38;10.77;;;;;;;3.57;95.63;100958.78;5096233;28;20123;-76
2022/01/27 09:31:25;;;;;;;35.38;10.70;;;;;;;3.58;95.39;100963.13;5096596;28;20470;-78
2022/01/27 09:33:50;;;;;;;30.52;10.82;;;;;;;3.57;95.47;100954.28;5096782;28;20028;-76
2022/01/27 09:36:16;;;;;;;29.98;10.27;;;;;;;3.60;95.61;100959.31;5096050;28;20110;-77
2022/01/27 09:38:42;;;;;;;23.90;9.15;;;;;;;3.62;95.63;100954.69;5095790;28;20107;-77
2022/01/27 09:41:10;;;;;;;27.73;9.00;;;;;;;3.60;95.72;100953.97;5095690;28;20111;-75
2022/01/27 09:43:36;;;;;;;29.63;9.50;;;;;;;3.61;95.77;100958.31;5094949;28;20043;-76
2022/01/27 09:46:06;;;;;;;36.75;9.82;;;;;;;3.63;95.73;100972.34;5095389;28;20082;-75
2022/01/27 09:48:37;;;;;;;30.92;9.73;;;;;;;3.64;95.62;100962.53;5095593;28;20028;-77
2022/01/27 09:53:54;;;;;;;31.48;10.13;;;;;;;3.68;96.08;100975.41;5095269;28;20501;-76
2022/01/27 09:56:21;;;;;;;28.30;11.07;;;;;;;3.71;96.09;100964.47;5095007;28;20089;-76
2022/01/27 09:58:47;;;;;;;26.80;9.50;;;;;;;3.74;95.75;100964.19;5094772;28;20051;-76
2022/01/27 10:01:13;;;;;;;35.03;11.68;;;;;;;3.71;95.80;100956.47;5094821;28;20067;-76
2022/01/27 10:04:02;;;;;;;23.95;8.68;;;;;;;3.75;95.78;100963.19;5093284;28;20387;-75
2022/01/27 10:06:31;;;;;;;20.13;8.95;;;;;;;3.77;95.88;100947.88;5093717;28;20134;-76
2022/01/27 10:09:29;;;;;;;24.13;7.80;;;;;;;3.78;95.93;100952.22;5093442;28;20028;-76
2022/01/27 10:11:54;;;;;;;27.40;11.60;;;;;;;3.81;95.97;100959.91;5094734;28;20016;-76
2022/01/27 10:14:24;;;;;;;26.20;10.07;;;;;;;3.81;95.94;100956.41;5094683;28;20034;-75
2022/01/27 10:16:53;;;;;;;23.17;9.23;;;;;;;3.84;96.03;100956.13;5094656;28;20036;-75
2022/01/27 10:19:20;;;;;;;30.65;10.25;;;;;;;3.88;95.94;100946.84;5093422;28;20056;-76
2022/01/27 10:21:47;;;;;;;34.75;11.05;;;;;;;3.89;96.55;100948.53;5094776;28;20066;-76
2022/01/27 10:24:13;;;;;;;;;;;;;;;3.90;96.14;100942.22;5094710;28;20064;-76
2022/01/27 10:26:43;;;;;;;22.40;9.02;;;;;;;3.93;96.24;100951.75;5094736;28;19912;-75
2022/01/27 10:29:16;;;;;;;28.73;9.48;;;;;;;3.93;96.09;100944.56;5094940;28;20024;-76
2022/01/27 10:31:42;;;;;;;25.38;10.38;;;;;;;3.98;96.63;100946.78;5095102;28;20032;-75
2022/01/27 10:34:10;;;;;;;25.85;9.02;;;;;;;4.03;96.53;100947.16;5093995;28;20064;-75
2022/01/27 10:36:40;;;;;;;30.08;9.88;;;;;;;4.04;96.19;100935.53;5094834;28;20032;-76
2022/01/27 10:39:09;;;;;;;30.10;9.63;;;;;;;4.02;96.36;100949.00;5094316;28;20092;-74
2022/01/27 10:41:37;;;;;;;32.75;9.80;;;;;;;4.08;96.24;100939.56;5094314;28;20032;-73
2022/01/27 10:44:18;;;;;;;29.20;10.85;;;;;;;4.09;96.49;100941.25;5094301;28;20110;-76
2022/01/27 10:47:22;;;;;;;25.23;9.88;;;;;;;4.16;96.21;100942.31;5094588;28;20501;-73
2022/01/27 10:50:03;;;;;;;30.60;9.43;;;;;;;4.19;96.41;100936.69;5032012;28;20056;-73
2022/01/27 10:55:00;;;;;;;25.20;10.25;;;;;;;4.23;96.94;100931.88;5093073;28;20028;-74
2022/01/27 10:57:27;;;;;;;24.05;8.95;;;;;;;4.22;96.63;100932.88;5093902;28;20051;-74
2022/01/27 11:00:24;;;;;;;;;;;;;;;4.23;96.01;100926.53;5094372;28;20103;-73
2022/01/27 11:02:49;;;;;;;24.10;8.43;;;;;;;4.25;96.68;100919.25;5048936;28;19916;-74
2022/01/27 11:05:17;;;;;;;24.50;9.57;;;;;;;4.30;96.51;100907.09;5093719;28;20032;-74
2022/01/27 11:07:43;;;;;;;20.73;8.07;;;;;;;4.34;96.54;100920.97;5092458;28;20270;-74
2022/01/27 11:10:08;;;;;;;21.58;8.65;;;;;;;4.33;96.56;100922.81;5093483;28;20024;-74
2022/01/27 11:12:35;;;;;;;25.20;9.45;;;;;;;4.36;96.66;100932.34;5093964;28;20070;-74
2022/01/27 11:15:01;;;;;;;23.55;9.77;;;;;;;4.36;96.76;100921.66;5093665;28;20035;-74
2022/01/27 11:17:33;;;;;;;21.30;7.82;;;;;;;4.38;96.28;100914.34;5092412;28;20139;-74
2022/01/27 11:22:46;;;;;;;20.85;8.02;;;;;;;4.41;96.39;100922.91;5093825;28;20044;-74
2022/01/27 11:27:44;;;;;;;24.58;9.02;;;;;;;4.44;96.32;100919.94;5093251;28;20114;-74
2022/01/27 11:30:18;;;;;;;22.23;9.10;;;;;;;4.47;96.52;100913.44;5093555;28;20052;-73
2022/01/27 11:33:10;;;;;;;20.55;8.25;;;;;;;4.50;96.78;100913.13;5091972;28;20371;-74
2022/01/27 11:35:39;;;;;;;23.13;9.00;;;;;;;4.57;96.05;100903.50;5093630;28;20051;-74
2022/01/27 11:38:08;;;;;;;23.98;8.50;;;;;;;4.57;96.25;100903.50;5092306;28;20044;-74
2022/01/27 11:40:44;;;;;;;21.38;7.63;;;;;;;4.57;96.67;100895.50;5093407;28;20481;-74
2022/01/27 11:43:17;;;;;;;20.60;7.47;;;;;;;4.59;96.59;100898.03;5091871;28;20024;-74
2022/01/27 11:45:47;;;;;;;24.30;8.70;;;;;;;4.63;96.65;100896.72;5091910;28;20063;-75
2022/01/27 11:48:21;;;;;;;18.08;7.55;;;;;;;4.62;96.75;100890.56;5092996;28;20029;-74
2022/01/27 11:50:59;;;;;;;19.63;7.47;;;;;;;4.66;96.29;100893.75;5093171;28;20038;-74
2022/01/27 11:53:32;;;;;;;19.45;8.48;;;;;;;4.66;96.72;100883.06;5092829;28;20048;-74
2022/01/27 11:56:00;;;;;;;18.13;7.20;;;;;;;4.69;96.34;100890.75;5092755;28;20527;-74
2022/01/27 11:58:26;;;;;;;20.77;8.00;;;;;;;4.71;96.42;100876.25;5092569;28;20155;-76
2022/01/27 12:01:11;;;;;;;20.92;9.25;;;;;;;4.74;96.41;100872.44;5093114;28;20028;-74
2022/01/27 12:03:38;;;;;;;16.92;6.88;;;;;;;4.76;96.59;100867.78;5092992;28;20419;-74
2022/01/27 12:06:21;;;;;;;24.00;8.15;;;;;;;4.78;96.94;100868.47;5094786;28;20024;-75
2022/01/27 12:08:47;;;;;;;24.23;8.40;;;;;;;4.78;96.86;100876.47;5099082;28;20044;-75
2022/01/27 12:11:31;;;;;;;;;;;;;;;4.79;96.85;100871.00;5100419;28;20024;-74
2022/01/27 12:14:01;;;;;;;21.15;7.18;;;;;;;4.80;97.11;100870.00;5099479;28;19914;-75
2022/01/27 12:16:40;;;;;;;22.33;7.35;;;;;;;4.83;96.44;100860.84;5099533;28;20408;-74
2022/01/27 12:19:12;;;;;;;19.95;7.38;;;;;;;4.86;97.13;100861.34;5099888;28;20028;-75